Time;durP1;ratioP1;P1;durP2;ratioP2;P2;SDS_P1;SDS_P2;PMS_P1;PMS_P2;Temp;Humidity;BMP_temperature;BMP_pressure;BME280_temperature;BME280_humidity;BME280_pressure;Samples;Min_cycle;Max_cycle;Signal;HPM_P1;HPM_P2
2021/01/03 00:01:56;;;;;;;33.53;20.10;;;;;;;;;;4998258;28;20030;-89
2021/01/03 00:04:22;;;;;;;30.27;18.73;;;;;;;;;;5019550;28;20040;-88
2021/01/03 00:06:51;;;;;;;25.17;14.75;;;;;;;;;;5012690;28;20029;-88
2021/01/03 00:09:17;;;;;;;26.73;15.35;;;;;;;;;;4998891;28;20125;-88
2021/01/03 00:11:43;;;;;;;26.63;15.63;;;;;;;;;;5017728;28;20032;-89
2021/01/03 00:14:09;;;;;;;19.88;11.88;;;;;;;;;;5020186;28;20039;-88
2021/01/03 00:16:35;;;;;;;24.75;14.25;;;;;;;;;;5008613;28;20537;-88
2021/01/03 00:19:01;;;;;;;25.15;14.60;;;;;;;;;;4992945;28;20099;-89
2021/01/03 00:21:27;;;;;;;22.25;13.13;;;;;;;;;;5010293;28;20087;-88
2021/01/03 00:23:53;;;;;;;25.63;14.88;;;;;;;;;;5017831;28;20035;-89
2021/01/03 00:26:19;;;;;;;29.80;15.45;;;;;;;;;;5011234;28;20122;-88
2021/01/03 00:28:45;;;;;;;24.70;14.43;;;;;;;;;;5016220;28;20033;-88
2021/01/03 00:31:11;;;;;;;21.77;13.02;;;;;;;;;;5018121;28;20270;-90
2021/01/03 00:33:37;;;;;;;20.08;13.43;;;;;;;;;;5017267;28;20072;-90
2021/01/03 00:36:04;;;;;;;23.13;14.43;;;;;;;;;;4997380;28;20064;-90
2021/01/03 00:38:30;;;;;;;19.83;12.40;;;;;;;;;;5020499;28;21088;-91
2021/01/03 00:40:56;;;;;;;16.13;12.05;;;;;;;;;;5011863;28;20030;-90
2021/01/03 00:43:22;;;;;;;17.27;12.25;;;;;;;;;;5019163;28;20120;-90
2021/01/03 00:45:48;;;;;;;17.55;11.23;;;;;;;;;;5017416;28;20036;-90
2021/01/03 00:48:14;;;;;;;23.67;13.70;;;;;;;;;;5018517;28;20709;-90
2021/01/03 00:50:40;;;;;;;20.48;12.88;;;;;;;;;;5016277;28;20327;-90
2021/01/03 00:53:06;;;;;;;19.55;12.65;;;;;;;;;;5015986;28;20037;-90
2021/01/03 00:55:32;;;;;;;16.08;10.75;;;;;;;;;;5001687;28;20029;-90
2021/01/03 00:57:58;;;;;;;15.52;10.13;;;;;;;;;;5013478;28;20485;-89
2021/01/03 01:00:28;;;;;;;13.57;9.35;;;;;;;;;;5020341;28;20441;-90
2021/01/03 01:02:54;;;;;;;15.15;10.25;;;;;;;;;;4995999;28;20260;-90
2021/01/03 01:05:20;;;;;;;14.57;9.23;;;;;;;;;;5012190;28;20044;-89
2021/01/03 01:07:46;;;;;;;12.90;9.07;;;;;;;;;;5001255;28;20037;-89
2021/01/03 01:10:14;;;;;;;12.20;8.35;;;;;;;;;;5013587;28;20355;-89
2021/01/03 01:12:40;;;;;;;11.90;7.85;;;;;;;;;;5015734;28;20095;-88
2021/01/03 01:15:06;;;;;;;13.20;8.45;;;;;;;;;;5009313;28;20051;-89
2021/01/03 01:17:32;;;;;;;13.70;8.52;;;;;;;;;;5014711;28;20033;-89
2021/01/03 01:19:59;;;;;;;8.68;6.45;;;;;;;;;;5012786;28;20045;-89
2021/01/03 01:22:25;;;;;;;8.93;6.88;;;;;;;;;;5008211;28;20506;-89
2021/01/03 01:24:51;;;;;;;9.05;6.38;;;;;;;;;;5001126;28;20030;-89
2021/01/03 01:27:20;;;;;;;10.23;6.65;;;;;;;;;;5019296;28;20033;-90
2021/01/03 01:29:46;;;;;;;11.63;5.65;;;;;;;;;;5008036;28;20029;-88
2021/01/03 01:32:12;;;;;;;7.90;5.43;;;;;;;;;;5015435;28;20390;-89
2021/01/03 01:34:38;;;;;;;8.10;5.40;;;;;;;;;;5017399;28;20564;-89
2021/01/03 01:37:04;;;;;;;8.43;5.65;;;;;;;;;;4994668;28;20037;-89
2021/01/03 01:39:30;;;;;;;8.77;6.47;;;;;;;;;;4999060;28;20029;-89
2021/01/03 01:41:56;;;;;;;7.80;5.82;;;;;;;;;;5018516;28;20168;-89
2021/01/03 01:44:22;;;;;;;8.00;5.88;;;;;;;;;;4988164;28;20349;-89
2021/01/03 01:47:00;;;;;;;8.70;5.85;;;;;;;;;;5013188;28;20039;-88
2021/01/03 01:49:26;;;;;;;7.70;5.07;;;;;;;;;;5003605;28;20044;-89
2021/01/03 01:51:52;;;;;;;5.13;3.88;;;;;;;;;;5013517;28;20033;-89
2021/01/03 01:54:27;;;;;;;6.38;4.25;;;;;;;;;;5012110;28;20046;-89
2021/01/03 01:56:56;;;;;;;5.13;3.60;;;;;;;;;;4987924;28;20117;-88
2021/01/03 01:59:28;;;;;;;5.75;3.58;;;;;;;;;;5006155;28;20025;-90
2021/01/03 02:01:59;;;;;;;7.60;4.28;;;;;;;;;;5013031;28;20036;-90
2021/01/03 02:04:38;;;;;;;4.05;3.33;;;;;;;;;;5009445;28;20330;-91
2021/01/03 02:07:27;;;;;;;5.88;3.60;;;;;;;;;;5015542;28;20113;-89
2021/01/03 02:10:25;;;;;;;4.55;3.42;;;;;;;;;;5002249;28;20034;-90
2021/01/03 02:12:53;;;;;;;4.65;3.33;;;;;;;;;;4991476;28;20029;-89
2021/01/03 02:15:21;;;;;;;7.95;3.95;;;;;;;;;;5018283;28;20041;-90
2021/01/03 02:17:47;;;;;;;4.63;3.45;;;;;;;;;;5001604;28;20065;-90
2021/01/03 02:20:14;;;;;;;5.20;3.75;;;;;;;;;;5013554;28;20187;-90
2021/01/03 02:22:42;;;;;;;5.78;4.30;;;;;;;;;;5011221;28;20311;-89
2021/01/03 02:25:09;;;;;;;4.78;3.42;;;;;;;;;;5018557;28;20357;-90
2021/01/03 02:27:47;;;;;;;5.78;3.50;;;;;;;;;;5003571;28;20025;-90
2021/01/03 02:30:13;;;;;;;3.55;3.13;;;;;;;;;;5010815;28;20022;-90
2021/01/03 02:32:42;;;;;;;6.25;3.42;;;;;;;;;;5016081;28;20046;-90
2021/01/03 02:35:08;;;;;;;5.85;3.58;;;;;;;;;;5016261;28;20083;-90
2021/01/03 02:37:39;;;;;;;4.63;3.17;;;;;;;;;;5006702;28;20033;-90
2021/01/03 02:40:05;;;;;;;5.88;3.75;;;;;;;;;;5012885;28;20544;-89
2021/01/03 02:42:32;;;;;;;5.18;3.40;;;;;;;;;;5024411;28;20038;-88
2021/01/03 02:44:59;;;;;;;4.57;3.15;;;;;;;;;;5014269;28;21047;-88
2021/01/03 02:47:25;;;;;;;4.50;3.03;;;;;;;;;;5030744;28;20140;-88
2021/01/03 02:49:51;;;;;;;3.28;2.60;;;;;;;;;;5012796;28;20103;-89
2021/01/03 02:52:24;;;;;;;4.00;2.85;;;;;;;;;;5019370;28;20040;-89
2021/01/03 02:54:51;;;;;;;4.22;2.67;;;;;;;;;;5016125;28;20320;-89
2021/01/03 02:57:18;;;;;;;3.28;2.45;;;;;;;;;;5014941;28;20036;-89
2021/01/03 02:59:44;;;;;;;4.05;3.10;;;;;;;;;;5007960;28;20037;-89
2021/01/03 03:02:10;;;;;;;3.40;2.72;;;;;;;;;;5014924;28;20121;-89
2021/01/03 03:04:36;;;;;;;3.95;2.90;;;;;;;;;;5006074;28;20367;-88
2021/01/03 03:07:02;;;;;;;4.10;3.00;;;;;;;;;;4998749;28;20030;-89
2021/01/03 03:09:28;;;;;;;4.00;2.95;;;;;;;;;;5031464;28;20037;-90
2021/01/03 03:11:54;;;;;;;3.78;2.97;;;;;;;;;;5016751;28;20040;-90
2021/01/03 03:14:20;;;;;;;4.60;2.90;;;;;;;;;;5021970;28;20049;-90
2021/01/03 03:16:46;;;;;;;3.13;2.20;;;;;;;;;;5026061;28;20075;-91
2021/01/03 03:19:14;;;;;;;5.47;3.22;;;;;;;;;;5021991;28;20033;-90
2021/01/03 03:21:40;;;;;;;3.90;2.72;;;;;;;;;;5025598;28;20306;-90
2021/01/03 03:24:06;;;;;;;6.47;3.15;;;;;;;;;;5025074;28;20581;-90
2021/01/03 03:26:33;;;;;;;4.45;3.08;;;;;;;;;;5025202;28;20028;-89
2021/01/03 03:28:59;;;;;;;5.35;3.53;;;;;;;;;;5023143;28;20514;-89
2021/01/03 03:31:28;;;;;;;4.18;2.72;;;;;;;;;;4999896;28;20037;-89
2021/01/03 03:33:55;;;;;;;4.47;3.15;;;;;;;;;;5040821;28;20145;-87
2021/01/03 03:36:21;;;;;;;4.00;3.30;;;;;;;;;;5024253;28;20032;-89
2021/01/03 03:38:47;;;;;;;5.10;3.60;;;;;;;;;;5015626;28;20036;-89
2021/01/03 03:41:24;;;;;;;7.00;4.13;;;;;;;;;;5024803;28;20187;-88
2021/01/03 03:43:50;;;;;;;5.82;3.88;;;;;;;;;;5024938;28;20079;-90
2021/01/03 03:46:16;;;;;;;6.75;4.53;;;;;;;;;;5021173;28;20556;-89
2021/01/03 03:48:42;;;;;;;6.50;4.53;;;;;;;;;;5028463;28;20038;-89
2021/01/03 03:51:08;;;;;;;7.25;4.90;;;;;;;;;;5023473;28;20141;-89
2021/01/03 03:53:34;;;;;;;6.15;4.93;;;;;;;;;;5027172;28;20129;-90
2021/01/03 03:56:00;;;;;;;6.75;4.95;;;;;;;;;;5019599;28;20076;-89
2021/01/03 03:58:26;;;;;;;10.55;4.82;;;;;;;;;;5018614;28;20041;-90
2021/01/03 04:00:53;;;;;;;7.72;5.63;;;;;;;;;;5021387;28;20030;-90
2021/01/03 04:03:19;;;;;;;8.35;5.68;;;;;;;;;;5030216;28;20032;-89
2021/01/03 04:05:46;;;;;;;8.30;5.07;;;;;;;;;;5024854;28;20233;-89
2021/01/03 04:08:12;;;;;;;7.45;4.57;;;;;;;;;;5033742;28;20078;-90
2021/01/03 04:10:40;;;;;;;9.23;5.45;;;;;;;;;;5023934;28;20578;-90
2021/01/03 04:13:07;;;;;;;8.57;5.85;;;;;;;;;;5028702;28;20018;-90
2021/01/03 04:15:33;;;;;;;6.63;4.93;;;;;;;;;;5023317;28;20446;-89
2021/01/03 04:17:59;;;;;;;7.13;5.05;;;;;;;;;;5029778;28;20024;-89
2021/01/03 04:20:25;;;;;;;9.02;5.40;;;;;;;;;;5022126;28;20041;-89
2021/01/03 04:22:51;;;;;;;8.55;5.18;;;;;;;;;;5026472;28;20029;-89
2021/01/03 04:25:17;;;;;;;6.85;4.72;;;;;;;;;;5020225;28;20036;-89
2021/01/03 04:27:43;;;;;;;7.57;4.32;;;;;;;;;;5024320;28;20479;-90
2021/01/03 04:30:10;;;;;;;6.68;5.15;;;;;;;;;;5021818;28;20516;-89
2021/01/03 04:32:36;;;;;;;7.80;4.80;;;;;;;;;;5017368;28;20053;-89
2021/01/03 04:35:02;;;;;;;8.02;5.50;;;;;;;;;;5021197;28;20045;-89
2021/01/03 04:37:28;;;;;;;6.70;4.15;;;;;;;;;;5023588;28;20021;-89
2021/01/03 04:39:54;;;;;;;6.70;4.78;;;;;;;;;;5020167;28;20493;-89
2021/01/03 04:42:22;;;;;;;6.07;3.90;;;;;;;;;;5020817;28;20021;-88
2021/01/03 04:45:08;;;;;;;5.57;4.00;;;;;;;;;;5008485;28;20037;-90
2021/01/03 04:47:38;;;;;;;5.65;4.00;;;;;;;;;;5036998;28;20026;-90
2021/01/03 04:50:24;;;;;;;6.30;3.72;;;;;;;;;;5026124;28;20153;-90
2021/01/03 04:53:10;;;;;;;5.22;3.38;;;;;;;;;;5026258;28;20557;-89
2021/01/03 04:55:37;;;;;;;5.78;3.90;;;;;;;;;;5005517;28;20045;-90
2021/01/03 04:58:26;;;;;;;4.82;3.83;;;;;;;;;;5023189;28;20025;-89
2021/01/03 05:01:15;;;;;;;5.68;3.67;;;;;;;;;;5027142;28;20029;-87
2021/01/03 05:04:00;;;;;;;6.63;3.60;;;;;;;;;;5010986;28;20072;-89
2021/01/03 05:06:26;;;;;;;4.53;3.63;;;;;;;;;;5037385;28;20041;-89
2021/01/03 05:08:53;;;;;;;4.70;3.40;;;;;;;;;;5022695;28;20078;-89
2021/01/03 05:11:20;;;;;;;5.43;3.65;;;;;;;;;;5025359;28;20017;-88
2021/01/03 05:13:46;;;;;;;5.25;3.63;;;;;;;;;;5019408;28;20061;-88
2021/01/03 05:16:13;;;;;;;7.68;3.42;;;;;;;;;;5050577;28;20529;-88
2021/01/03 05:18:39;;;;;;;5.47;3.60;;;;;;;;;;5014535;28;20037;-89
2021/01/03 05:21:07;;;;;;;4.40;3.25;;;;;;;;;;5022394;28;20104;-89
2021/01/03 05:23:38;;;;;;;4.43;3.15;;;;;;;;;;5031858;28;20025;-87
2021/01/03 05:26:05;;;;;;;5.05;2.90;;;;;;;;;;5026682;28;20057;-88
2021/01/03 05:28:32;;;;;;;5.05;3.35;;;;;;;;;;5015859;28;21221;-88
2021/01/03 05:31:15;;;;;;;4.18;3.08;;;;;;;;;;5021916;28;20481;-88
2021/01/03 05:33:50;;;;;;;5.20;3.83;;;;;;;;;;5005134;28;20054;-88
2021/01/03 05:36:28;;;;;;;7.20;3.67;;;;;;;;;;5022782;28;20021;-89
2021/01/03 05:38:54;;;;;;;6.80;3.42;;;;;;;;;;5024874;28;20219;-88
2021/01/03 05:41:22;;;;;;;5.10;3.85;;;;;;;;;;5019704;28;20500;-90
2021/01/03 05:43:55;;;;;;;4.38;3.42;;;;;;;;;;5027677;28;20120;-89
2021/01/03 05:46:45;;;;;;;4.38;3.00;;;;;;;;;;5008902;28;20029;-87
2021/01/03 05:49:12;;;;;;;4.03;2.90;;;;;;;;;;5012093;28;20348;-88
2021/01/03 05:51:38;;;;;;;4.55;3.25;;;;;;;;;;5021858;28;20025;-88
2021/01/03 05:54:14;;;;;;;5.45;3.80;;;;;;;;;;5027268;28;20095;-88
2021/01/03 05:56:40;;;;;;;4.85;3.88;;;;;;;;;;5018150;28;20029;-89
2021/01/03 05:59:06;;;;;;;5.03;3.53;;;;;;;;;;5020141;28;20026;-88
2021/01/03 06:01:33;;;;;;;5.03;3.88;;;;;;;;;;5017952;28;20545;-88
2021/01/03 06:04:05;;;;;;;5.03;3.75;;;;;;;;;;5026268;28;20029;-88
2021/01/03 06:06:35;;;;;;;6.80;3.58;;;;;;;;;;5038842;28;20065;-88
2021/01/03 06:09:01;;;;;;;4.90;3.63;;;;;;;;;;5032927;28;20026;-89
2021/01/03 06:11:27;;;;;;;5.93;4.20;;;;;;;;;;5009753;28;20033;-89
2021/01/03 06:13:53;;;;;;;5.55;4.22;;;;;;;;;;5033452;28;20060;-88
2021/01/03 06:16:23;;;;;;;6.80;3.83;;;;;;;;;;5028084;28;20302;-89
2021/01/03 06:18:50;;;;;;;6.82;4.03;;;;;;;;;;5028089;28;20037;-87
2021/01/03 06:21:21;;;;;;;5.72;4.47;;;;;;;;;;5024983;28;20025;-88
2021/01/03 06:23:51;;;;;;;4.55;3.53;;;;;;;;;;5024938;28;20033;-88
2021/01/03 06:26:18;;;;;;;5.07;4.10;;;;;;;;;;5023073;28;20494;-88
2021/01/03 06:28:45;;;;;;;5.82;3.78;;;;;;;;;;5023351;28;20052;-88
2021/01/03 06:31:30;;;;;;;4.43;3.38;;;;;;;;;;5022255;28;20037;-89
2021/01/03 06:34:13;;;;;;;4.80;3.85;;;;;;;;;;5035279;28;20080;-89
2021/01/03 06:36:47;;;;;;;5.93;3.80;;;;;;;;;;5034449;28;20026;-87
2021/01/03 06:39:22;;;;;;;5.90;3.33;;;;;;;;;;5020696;28;20108;-88
2021/01/03 06:41:52;;;;;;;5.00;3.50;;;;;;;;;;5020425;28;20299;-89
2021/01/03 06:44:28;;;;;;;4.90;4.00;;;;;;;;;;5009672;28;20082;-88
2021/01/03 06:47:02;;;;;;;4.60;3.70;;;;;;;;;;5035747;28;20033;-88
2021/01/03 06:49:31;;;;;;;6.15;4.50;;;;;;;;;;5007123;28;20271;-88
2021/01/03 06:52:00;;;;;;;5.75;4.50;;;;;;;;;;5025822;28;20040;-90
2021/01/03 06:54:26;;;;;;;4.68;3.72;;;;;;;;;;5036136;28;20046;-89
2021/01/03 06:57:11;;;;;;;4.65;3.70;;;;;;;;;;5021612;28;20525;-89
2021/01/03 06:59:37;;;;;;;4.85;3.72;;;;;;;;;;5016448;28;20040;-89
2021/01/03 07:02:03;;;;;;;7.75;5.07;;;;;;;;;;5034703;28;20037;-89
2021/01/03 07:04:29;;;;;;;4.90;4.15;;;;;;;;;;5028896;28;20029;-89
2021/01/03 07:06:55;;;;;;;5.57;4.65;;;;;;;;;;5025947;28;20053;-88
2021/01/03 07:09:22;;;;;;;5.82;4.68;;;;;;;;;;5027667;28;20029;-87
2021/01/03 07:11:57;;;;;;;6.80;4.28;;;;;;;;;;5023552;28;20033;-88
2021/01/03 07:14:23;;;;;;;6.70;4.57;;;;;;;;;;5026282;28;20478;-88
2021/01/03 07:17:02;;;;;;;7.07;4.63;;;;;;;;;;5036312;28;20128;-88
2021/01/03 07:19:35;;;;;;;5.85;4.20;;;;;;;;;;5024301;28;20104;-88
2021/01/03 07:22:07;;;;;;;5.97;3.97;;;;;;;;;;5024278;28;20029;-88
2021/01/03 07:24:36;;;;;;;5.13;3.80;;;;;;;;;;5030031;28;20036;-88
2021/01/03 07:27:14;;;;;;;7.00;4.05;;;;;;;;;;5028142;28;20617;-88
2021/01/03 07:29:55;;;;;;;6.20;4.32;;;;;;;;;;5019651;28;20037;-89
2021/01/03 07:32:37;;;;;;;6.55;5.25;;;;;;;;;;5024249;28;20544;-89
2021/01/03 07:35:28;;;;;;;5.55;4.43;;;;;;;;;;5028396;28;21284;-89
2021/01/03 07:38:14;;;;;;;5.43;4.18;;;;;;;;;;5022592;28;20030;-88
2021/01/03 07:40:47;;;;;;;6.57;4.43;;;;;;;;;;5026336;28;20038;-88
2021/01/03 07:43:13;;;;;;;7.32;5.00;;;;;;;;;;5028884;28;20292;-88
2021/01/03 07:45:39;;;;;;;7.55;4.95;;;;;;;;;;5022583;28;20037;-89
2021/01/03 07:48:05;;;;;;;7.25;4.65;;;;;;;;;;5042476;28;20044;-89
2021/01/03 07:50:31;;;;;;;6.45;4.25;;;;;;;;;;5026574;28;20080;-87
2021/01/03 07:52:58;;;;;;;7.20;4.75;;;;;;;;;;5025176;28;20029;-88
2021/01/03 07:55:27;;;;;;;6.40;4.53;;;;;;;;;;5020913;28;20042;-87
2021/01/03 07:57:54;;;;;;;6.25;4.60;;;;;;;;;;5028020;28;20026;-88
2021/01/03 08:00:21;;;;;;;6.50;4.25;;;;;;;;;;5029559;28;20059;-89
2021/01/03 08:02:47;;;;;;;6.57;5.10;;;;;;;;;;5030868;28;20029;-87
2021/01/03 08:05:14;;;;;;;7.55;5.32;;;;;;;;;;5024296;28;20032;-88
2021/01/03 08:07:40;;;;;;;6.97;5.43;;;;;;;;;;5028496;28;20595;-89
2021/01/03 08:10:07;;;;;;;5.93;4.97;;;;;;;;;;5037179;28;20079;-89
2021/01/03 08:12:34;;;;;;;6.03;4.72;;;;;;;;;;5026581;28;20091;-89
2021/01/03 08:15:03;;;;;;;7.95;4.70;;;;;;;;;;5037642;28;20042;-88
2021/01/03 08:17:30;;;;;;;8.23;5.25;;;;;;;;;;5037560;28;20017;-89
2021/01/03 08:20:01;;;;;;;7.72;5.45;;;;;;;;;;5020228;28;20054;-89
2021/01/03 08:22:27;;;;;;;5.70;4.47;;;;;;;;;;5034507;28;20087;-87
2021/01/03 08:24:54;;;;;;;6.85;5.07;;;;;;;;;;5036144;28;20045;-88
2021/01/03 08:27:21;;;;;;;6.72;5.28;;;;;;;;;;5027873;28;20037;-88
2021/01/03 08:29:47;;;;;;;5.28;4.47;;;;;;;;;;5041058;28;20021;-88
2021/01/03 08:32:24;;;;;;;6.47;5.10;;;;;;;;;;5023290;28;20024;-87
2021/01/03 08:34:50;;;;;;;6.47;5.05;;;;;;;;;;5041392;28;20049;-88
2021/01/03 08:37:20;;;;;;;6.72;4.57;;;;;;;;;;5034164;28;20421;-88
2021/01/03 08:39:47;;;;;;;6.47;4.22;;;;;;;;;;5042422;28;20744;-86
2021/01/03 08:42:15;;;;;;;6.13;4.50;;;;;;;;;;5029694;28;20094;-88
2021/01/03 08:44:42;;;;;;;11.27;5.55;;;;;;;;;;5038723;28;20060;-88
2021/01/03 08:47:09;;;;;;;6.43;4.25;;;;;;;;;;5038076;28;20047;-87
2021/01/03 08:49:35;;;;;;;6.75;4.95;;;;;;;;;;5023715;28;20079;-88
2021/01/03 08:52:08;;;;;;;6.28;5.13;;;;;;;;;;5034336;28;20030;-85
2021/01/03 08:54:34;;;;;;;6.32;4.80;;;;;;;;;;5031600;28;20109;-85
2021/01/03 08:57:01;;;;;;;5.93;4.40;;;;;;;;;;5024353;28;20018;-85
2021/01/03 08:59:27;;;;;;;5.97;4.47;;;;;;;;;;5011571;28;20037;-84
2021/01/03 09:01:53;;;;;;;6.90;4.65;;;;;;;;;;5030975;28;20089;-84
2021/01/03 09:04:19;;;;;;;6.35;4.63;;;;;;;;;;5023380;28;20197;-83
2021/01/03 09:06:46;;;;;;;6.05;4.72;;;;;;;;;;5032563;28;20064;-83
2021/01/03 09:09:16;;;;;;;7.00;4.47;;;;;;;;;;5035524;28;20022;-84
2021/01/03 09:11:50;;;;;;;8.00;4.75;;;;;;;;;;5036383;28;20063;-84
2021/01/03 09:14:29;;;;;;;9.32;5.57;;;;;;;;;;5035055;28;20056;-83
2021/01/03 09:16:55;;;;;;;7.03;4.90;;;;;;;;;;5031265;28;20171;-85
2021/01/03 09:28:36;;;;;;;5.60;4.78;;;;;;;;;;5017734;28;20040;-80
2021/01/03 09:31:22;;;;;;;6.22;4.78;;;;;;;;;;4999400;28;20053;-79
2021/01/03 09:33:55;;;;;;;6.05;4.20;;;;;;;;;;5018187;28;20092;-80
2021/01/03 09:36:34;;;;;;;5.78;4.78;;;;;;;;;;4984398;28;20033;-80
2021/01/03 09:39:07;;;;;;;5.68;4.10;;;;;;;;;;5014207;28;20028;-79
2021/01/03 09:41:43;;;;;;;8.30;4.90;;;;;;;;;;5018574;28;20539;-79
2021/01/03 09:44:19;;;;;;;5.82;4.00;;;;;;;;;;5039233;28;20033;-80
2021/01/03 09:46:54;;;;;;;7.20;4.50;;;;;;;;;;5016823;28;20371;-81
2021/01/03 09:49:25;;;;;;;8.63;4.95;;;;;;;;;;5030341;28;20264;-82
2021/01/03 09:51:54;;;;;;;7.40;4.72;;;;;;;;;;5018417;28;20033;-80
2021/01/03 09:54:21;;;;;;;5.90;4.47;;;;;;;;;;5025590;28;20040;-81
2021/01/03 09:56:49;;;;;;;6.70;4.20;;;;;;;;;;5034149;28;20562;-81
2021/01/03 09:59:19;;;;;;;5.68;4.50;;;;;;;;;;5021673;28;20417;-81
2021/01/03 10:01:45;;;;;;;6.35;4.30;;;;;;;;;;5015039;28;20029;-81
2021/01/03 10:04:13;;;;;;;6.85;4.63;;;;;;;;;;5002738;28;20505;-82
2021/01/03 10:06:39;;;;;;;7.53;4.75;;;;;;;;;;5008920;28;20107;-81
2021/01/03 10:09:15;;;;;;;6.30;4.35;;;;;;;;;;5000707;28;20038;-81
2021/01/03 10:11:41;;;;;;;7.93;4.30;;;;;;;;;;5033768;28;20055;-82
2021/01/03 10:14:14;;;;;;;5.82;4.47;;;;;;;;;;5020948;28;20095;-81
2021/01/03 10:16:41;;;;;;;5.95;4.22;;;;;;;;;;5025621;28;20405;-81
2021/01/03 10:19:14;;;;;;;7.05;4.32;;;;;;;;;;5001769;28;20059;-81
2021/01/03 10:21:41;;;;;;;6.20;4.60;;;;;;;;;;5027987;28;20025;-81
2021/01/03 10:24:16;;;;;;;7.18;4.68;;;;;;;;;;5025772;28;20024;-81
2021/01/03 10:26:42;;;;;;;8.15;4.28;;;;;;;;;;5041460;28;20393;-81
2021/01/03 10:29:08;;;;;;;9.07;3.95;;;;;;;;;;5026491;28;20075;-81
2021/01/03 10:31:42;;;;;;;6.40;4.28;;;;;;;;;;5008391;28;20036;-77
2021/01/03 10:34:08;;;;;;;5.65;4.05;;;;;;;;;;5023019;28;20045;-77
2021/01/03 10:36:34;;;;;;;11.38;4.15;;;;;;;;;;5025866;28;20048;-77
2021/01/03 10:39:00;;;;;;;6.13;4.10;;;;;;;;;;5008248;28;20033;-79
2021/01/03 10:41:30;;;;;;;6.35;4.13;;;;;;;;;;5021687;28;20033;-76
2021/01/03 10:43:56;;;;;;;6.93;4.20;;;;;;;;;;5022212;28;20029;-76
2021/01/03 10:46:22;;;;;;;5.45;3.35;;;;;;;;;;5034382;28;20554;-77
2021/01/03 10:48:48;;;;;;;6.25;3.47;;;;;;;;;;5026791;28;20393;-76
2021/01/03 10:51:14;;;;;;;5.47;3.15;;;;;;;;;;5011969;28;20330;-76
2021/01/03 10:53:41;;;;;;;5.63;2.75;;;;;;;;;;5012084;28;20312;-78
2021/01/03 10:56:08;;;;;;;6.35;4.55;;;;;;;;;;5008051;28;20029;-78
2021/01/03 10:58:36;;;;;;;5.43;3.08;;;;;;;;;;5026005;28;20036;-78
2021/01/03 11:01:02;;;;;;;4.45;2.63;;;;;;;;;;5047749;28;20775;-80
2021/01/03 11:03:28;;;;;;;4.95;2.80;;;;;;;;;;5010981;28;20044;-80
2021/01/03 11:05:54;;;;;;;5.07;3.00;;;;;;;;;;5032339;28;20036;-80
2021/01/03 11:08:20;;;;;;;2.83;2.35;;;;;;;;;;5025044;28;20074;-80
2021/01/03 11:10:46;;;;;;;3.58;2.28;;;;;;;;;;5022010;28;20496;-80
2021/01/03 11:13:12;;;;;;;4.60;2.47;;;;;;;;;;5015428;28;20017;-80
2021/01/03 11:15:38;;;;;;;6.60;2.42;;;;;;;;;;5024832;28;20035;-80
2021/01/03 11:18:04;;;;;;;3.15;1.75;;;;;;;;;;5021020;28;20060;-79
2021/01/03 11:20:30;;;;;;;2.95;2.13;;;;;;;;;;5026094;28;20047;-80
2021/01/03 11:22:57;;;;;;;2.35;1.65;;;;;;;;;;5027091;28;20474;-80
2021/01/03 11:25:23;;;;;;;3.30;2.10;;;;;;;;;;5023768;28;20029;-80
2021/01/03 11:27:49;;;;;;;2.72;2.38;;;;;;;;;;5021853;28;20618;-81
2021/01/03 11:30:15;;;;;;;2.83;1.88;;;;;;;;;;5021470;28;20025;-79
2021/01/03 11:32:43;;;;;;;2.55;1.88;;;;;;;;;;5037695;28;20064;-83
2021/01/03 11:35:09;;;;;;;3.80;1.60;;;;;;;;;;5018094;28;20059;-80
2021/01/03 11:37:35;;;;;;;3.45;2.03;;;;;;;;;;5019802;28;20505;-80
2021/01/03 11:40:01;;;;;;;2.45;1.83;;;;;;;;;;5016404;28;20121;-80
2021/01/03 11:42:31;;;;;;;2.35;1.88;;;;;;;;;;5012896;28;20760;-81
2021/01/03 11:44:58;;;;;;;3.70;1.88;;;;;;;;;;5014020;28;20032;-80
2021/01/03 11:47:24;;;;;;;3.22;1.95;;;;;;;;;;5019882;28;20033;-80
2021/01/03 11:49:50;;;;;;;3.35;1.88;;;;;;;;;;5037306;28;20079;-80
2021/01/03 11:52:16;;;;;;;2.38;2.05;;;;;;;;;;5020794;28;20098;-82
2021/01/03 11:54:42;;;;;;;3.33;2.05;;;;;;;;;;5001046;28;20128;-83
2021/01/03 11:57:08;;;;;;;4.28;2.72;;;;;;;;;;5015688;28;20149;-81
2021/01/03 11:59:34;;;;;;;2.63;2.00;;;;;;;;;;5006465;28;20032;-82
2021/01/03 12:02:01;;;;;;;5.13;2.15;;;;;;;;;;5020376;28;20083;-82
2021/01/03 12:04:27;;;;;;;4.57;2.58;;;;;;;;;;5019746;28;20638;-81
2021/01/03 12:06:57;;;;;;;3.55;2.08;;;;;;;;;;4997222;28;20101;-81
2021/01/03 12:09:23;;;;;;;3.85;2.13;;;;;;;;;;5021522;28;20029;-81
2021/01/03 12:11:52;;;;;;;2.88;1.52;;;;;;;;;;5009629;28;20625;-82
2021/01/03 12:14:18;;;;;;;2.58;1.80;;;;;;;;;;5019889;28;20129;-80
2021/01/03 12:16:44;;;;;;;4.07;1.98;;;;;;;;;;5017706;28;20149;-82
2021/01/03 12:19:10;;;;;;;3.10;2.33;;;;;;;;;;5012101;28;20172;-82
2021/01/03 12:21:37;;;;;;;2.90;1.88;;;;;;;;;;5029547;28;20238;-82
2021/01/03 12:24:03;;;;;;;3.35;1.80;;;;;;;;;;5012851;28;20029;-82
2021/01/03 12:26:40;;;;;;;3.03;2.40;;;;;;;;;;5007889;28;20104;-80
2021/01/03 12:29:06;;;;;;;3.88;2.05;;;;;;;;;;5010721;28;20056;-82
2021/01/03 12:31:33;;;;;;;4.18;2.10;;;;;;;;;;5012834;28;20021;-81
2021/01/03 12:33:59;;;;;;;5.75;1.77;;;;;;;;;;5013537;28;20083;-83
2021/01/03 12:36:25;;;;;;;4.60;1.83;;;;;;;;;;5008349;28;20072;-84
2021/01/03 12:38:51;;;;;;;2.58;1.73;;;;;;;;;;4996258;28;20566;-83
2021/01/03 12:41:20;;;;;;;2.40;2.00;;;;;;;;;;5007478;28;20029;-82
2021/01/03 12:43:47;;;;;;;4.75;2.20;;;;;;;;;;5010448;28;20041;-82
2021/01/03 12:46:13;;;;;;;4.55;2.00;;;;;;;;;;4998708;28;20036;-82
2021/01/03 12:48:39;;;;;;;2.35;1.70;;;;;;;;;;5009745;28;20409;-81
2021/01/03 12:51:05;;;;;;;3.38;1.85;;;;;;;;;;5015053;28;20163;-80
2021/01/03 12:53:31;;;;;;;2.45;1.70;;;;;;;;;;5016426;28;20393;-83
2021/01/03 12:55:57;;;;;;;3.33;1.40;;;;;;;;;;5012144;28;20056;-79
2021/01/03 12:58:23;;;;;;;2.70;1.80;;;;;;;;;;5016766;28;20055;-82
2021/01/03 13:00:49;;;;;;;4.80;1.67;;;;;;;;;;5018100;28;20052;-82
2021/01/03 13:03:15;;;;;;;4.20;2.35;;;;;;;;;;5028184;28;21403;-81
2021/01/03 13:05:41;;;;;;;5.40;2.45;;;;;;;;;;5004276;28;20882;-82
2021/01/03 13:08:07;;;;;;;7.22;2.72;;;;;;;;;;5015887;28;20649;-81
2021/01/03 13:10:33;;;;;;;3.30;2.25;;;;;;;;;;5013744;28;20611;-82
2021/01/03 13:12:59;;;;;;;3.10;1.92;;;;;;;;;;5031372;28;20033;-83
2021/01/03 13:15:25;;;;;;;2.13;1.63;;;;;;;;;;5015177;28;20047;-80
2021/01/03 13:17:52;;;;;;;4.65;1.88;;;;;;;;;;5013073;28;20409;-81
2021/01/03 13:20:18;;;;;;;3.72;2.00;;;;;;;;;;5028860;28;20036;-81
2021/01/03 13:22:44;;;;;;;4.50;2.20;;;;;;;;;;5004342;28;20258;-81
2021/01/03 13:25:11;;;;;;;2.92;2.17;;;;;;;;;;5015726;28;20390;-82
2021/01/03 13:27:38;;;;;;;4.03;2.58;;;;;;;;;;5012708;28;20037;-82
2021/01/03 13:30:05;;;;;;;4.45;2.85;;;;;;;;;;4999378;28;20029;-81
2021/01/03 13:32:32;;;;;;;3.95;2.75;;;;;;;;;;5028714;28;20048;-81
2021/01/03 13:34:58;;;;;;;2.90;1.73;;;;;;;;;;5030391;28;20041;-80
2021/01/03 13:37:24;;;;;;;2.92;2.15;;;;;;;;;;5008646;28;20111;-81
2021/01/03 13:39:50;;;;;;;2.70;1.50;;;;;;;;;;5011621;28;20029;-82
2021/01/03 13:42:16;;;;;;;4.38;2.17;;;;;;;;;;5012006;28;20439;-81
2021/01/03 13:44:42;;;;;;;2.95;2.00;;;;;;;;;;5011762;28;20119;-81
2021/01/03 13:47:08;;;;;;;2.65;1.98;;;;;;;;;;5023451;28;20028;-79
2021/01/03 13:49:34;;;;;;;1.45;1.27;;;;;;;;;;5009399;28;20041;-81
2021/01/03 13:52:00;;;;;;;2.65;1.50;;;;;;;;;;5029787;28;20029;-80
2021/01/03 13:54:26;;;;;;;2.22;1.48;;;;;;;;;;5007389;28;20542;-81
2021/01/03 13:56:52;;;;;;;2.35;1.67;;;;;;;;;;5025067;28;20087;-81
2021/01/03 13:59:18;;;;;;;2.47;1.50;;;;;;;;;;5009110;28;20032;-81
2021/01/03 14:01:44;;;;;;;2.45;1.33;;;;;;;;;;5009293;28;20418;-82
2021/01/03 14:04:10;;;;;;;1.92;1.30;;;;;;;;;;4991248;28;20025;-81
2021/01/03 14:06:37;;;;;;;1.45;1.10;;;;;;;;;;5027197;28;20393;-81
2021/01/03 14:09:04;;;;;;;3.40;1.73;;;;;;;;;;4992626;28;20509;-81
2021/01/03 14:11:30;;;;;;;2.17;1.65;;;;;;;;;;5010418;28;20036;-82
2021/01/03 14:13:57;;;;;;;4.47;2.13;;;;;;;;;;5014406;28;20072;-82
2021/01/03 14:16:24;;;;;;;2.17;1.10;;;;;;;;;;5016624;28;20109;-82
2021/01/03 14:18:50;;;;;;;2.97;1.48;;;;;;;;;;5012295;28;20021;-83
2021/01/03 14:21:20;;;;;;;2.72;1.23;;;;;;;;;;5013422;28;20035;-81
2021/01/03 14:23:46;;;;;;;3.58;1.25;;;;;;;;;;5014001;28;20539;-81
2021/01/03 14:26:12;;;;;;;2.75;1.17;;;;;;;;;;4994765;28;20033;-82
2021/01/03 14:28:38;;;;;;;2.88;1.23;;;;;;;;;;5011519;28;20823;-82
2021/01/03 14:31:05;;;;;;;3.25;1.38;;;;;;;;;;5009357;28;20370;-79
2021/01/03 14:33:31;;;;;;;3.25;1.20;;;;;;;;;;5025531;28;20044;-80
2021/01/03 14:36:02;;;;;;;1.90;1.00;;;;;;;;;;5011214;28;20480;-81
2021/01/03 14:38:29;;;;;;;3.58;1.17;;;;;;;;;;4995514;28;20032;-80
2021/01/03 14:40:58;;;;;;;2.25;1.25;;;;;;;;;;5011081;28;20370;-81
2021/01/03 14:43:36;;;;;;;1.73;1.17;;;;;;;;;;5012796;28;20025;-79
2021/01/03 14:46:15;;;;;;;2.75;1.60;;;;;;;;;;5011557;28;20467;-81
2021/01/03 14:49:00;;;;;;;2.25;1.30;;;;;;;;;;5007888;28;20381;-80
2021/01/03 14:51:44;;;;;;;1.77;1.15;;;;;;;;;;5027818;28;20322;-79
2021/01/03 14:54:26;;;;;;;4.35;1.33;;;;;;;;;;5028890;28;20477;-78
2021/01/03 14:56:56;;;;;;;3.17;1.85;;;;;;;;;;5012381;28;20033;-79
2021/01/03 14:59:22;;;;;;;3.25;1.40;;;;;;;;;;5015837;28;20060;-80